sensor_id;sensor_type;location;lat;lon;timestamp;temperature;humidity
66670;DHT22;53568;52.164;4.472;2023-07-08T00:00:51;23.22;50.37
66670;DHT22;53568;52.164;4.472;2023-07-08T00:03:19;23.14;50.58
66670;DHT22;53568;52.164;4.472;2023-07-08T00:05:46;23.07;50.82
66670;DHT22;53568;52.164;4.472;2023-07-08T00:08:17;23.02;50.81
66670;DHT22;53568;52.164;4.472;2023-07-08T00:10:43;22.96;50.99
66670;DHT22;53568;52.164;4.472;2023-07-08T00:13:10;22.98;51.26
66670;DHT22;53568;52.164;4.472;2023-07-08T00:15:37;23.02;51.00
66670;DHT22;53568;52.164;4.472;2023-07-08T00:18:12;23.00;50.97
66670;DHT22;53568;52.164;4.472;2023-07-08T00:20:44;22.96;50.70
66670;DHT22;53568;52.164;4.472;2023-07-08T00:23:10;22.96;51.19
66670;DHT22;53568;52.164;4.472;2023-07-08T00:25:37;22.95;51.48
66670;DHT22;53568;52.164;4.472;2023-07-08T00:28:09;23.03;51.49
66670;DHT22;53568;52.164;4.472;2023-07-08T00:30:35;23.02;51.62
66670;DHT22;53568;52.164;4.472;2023-07-08T00:33:01;22.96;51.95
66670;DHT22;53568;52.164;4.472;2023-07-08T00:35:36;22.95;51.90
66670;DHT22;53568;52.164;4.472;2023-07-08T00:38:23;22.88;52.07
66670;DHT22;53568;52.164;4.472;2023-07-08T00:43:43;22.66;52.58
66670;DHT22;53568;52.164;4.472;2023-07-08T00:46:34;22.68;52.74
66670;DHT22;53568;52.164;4.472;2023-07-08T00:51:33;22.70;52.42
66670;DHT22;53568;52.164;4.472;2023-07-08T00:53:59;22.68;52.42
66670;DHT22;53568;52.164;4.472;2023-07-08T00:56:29;22.69;52.59
66670;DHT22;53568;52.164;4.472;2023-07-08T00:58:59;22.70;52.63
66670;DHT22;53568;52.164;4.472;2023-07-08T01:01:28;22.70;52.56
66670;DHT22;53568;52.164;4.472;2023-07-08T01:04:03;22.60;52.95
66670;DHT22;53568;52.164;4.472;2023-07-08T01:06:34;22.58;53.12
66670;DHT22;53568;52.164;4.472;2023-07-08T01:09:08;22.51;53.09
66670;DHT22;53568;52.164;4.472;2023-07-08T01:11:39;22.38;53.43
66670;DHT22;53568;52.164;4.472;2023-07-08T01:14:09;22.29;53.48
66670;DHT22;53568;52.164;4.472;2023-07-08T01:16:36;22.18;53.78
66670;DHT22;53568;52.164;4.472;2023-07-08T01:19:04;22.06;53.89
66670;DHT22;53568;52.164;4.472;2023-07-08T01:21:39;22.00;54.01
66670;DHT22;53568;52.164;4.472;2023-07-08T01:24:09;21.97;54.02
66670;DHT22;53568;52.164;4.472;2023-07-08T01:26:42;21.87;54.39
66670;DHT22;53568;52.164;4.472;2023-07-08T01:29:10;21.78;54.39
66670;DHT22;53568;52.164;4.472;2023-07-08T01:31:36;21.82;54.53
66670;DHT22;53568;52.164;4.472;2023-07-08T01:34:02;21.73;54.85
66670;DHT22;53568;52.164;4.472;2023-07-08T01:36:37;21.75;54.85
66670;DHT22;53568;52.164;4.472;2023-07-08T01:39:04;21.71;55.02
66670;DHT22;53568;52.164;4.472;2023-07-08T01:41:30;21.68;55.13
66670;DHT22;53568;52.164;4.472;2023-07-08T01:43:55;21.68;55.22
66670;DHT22;53568;52.164;4.472;2023-07-08T01:46:24;21.70;55.08
66670;DHT22;53568;52.164;4.472;2023-07-08T01:48:56;21.73;54.98
66670;DHT22;53568;52.164;4.472;2023-07-08T01:51:24;21.70;55.05
66670;DHT22;53568;52.164;4.472;2023-07-08T01:53:50;21.71;55.26
66670;DHT22;53568;52.164;4.472;2023-07-08T01:56:16;21.70;55.61
66670;DHT22;53568;52.164;4.472;2023-07-08T01:58:42;21.75;55.17
66670;DHT22;53568;52.164;4.472;2023-07-08T02:01:07;21.70;55.39
66670;DHT22;53568;52.164;4.472;2023-07-08T02:03:33;21.65;55.66
66670;DHT22;53568;52.164;4.472;2023-07-08T02:06:00;21.71;55.54
66670;DHT22;53568;52.164;4.472;2023-07-08T02:08:26;21.67;55.77
66670;DHT22;53568;52.164;4.472;2023-07-08T02:10:53;21.64;55.94
66670;DHT22;53568;52.164;4.472;2023-07-08T02:13:20;21.64;55.93
66670;DHT22;53568;52.164;4.472;2023-07-08T02:15:46;21.60;56.13
66670;DHT22;53568;52.164;4.472;2023-07-08T02:18:11;21.53;56.52
66670;DHT22;53568;52.164;4.472;2023-07-08T02:20:36;21.60;56.33
66670;DHT22;53568;52.164;4.472;2023-07-08T02:23:02;21.51;56.49
66670;DHT22;53568;52.164;4.472;2023-07-08T02:25:27;21.55;56.47
66670;DHT22;53568;52.164;4.472;2023-07-08T02:27:54;21.47;56.66
66670;DHT22;53568;52.164;4.472;2023-07-08T02:30:23;21.47;56.87
66670;DHT22;53568;52.164;4.472;2023-07-08T02:32:49;21.43;57.07
66670;DHT22;53568;52.164;4.472;2023-07-08T02:35:27;21.40;57.13
66670;DHT22;53568;52.164;4.472;2023-07-08T02:37:53;21.30;57.42
66670;DHT22;53568;52.164;4.472;2023-07-08T02:40:21;21.17;57.92
66670;DHT22;53568;52.164;4.472;2023-07-08T02:42:48;21.07;58.23
66670;DHT22;53568;52.164;4.472;2023-07-08T02:45:15;21.08;58.44
66670;DHT22;53568;52.164;4.472;2023-07-08T02:47:41;21.13;58.45
66670;DHT22;53568;52.164;4.472;2023-07-08T02:50:08;21.10;58.36
66670;DHT22;53568;52.164;4.472;2023-07-08T02:52:34;21.11;58.32
66670;DHT22;53568;52.164;4.472;2023-07-08T02:55:00;21.04;58.79
66670;DHT22;53568;52.164;4.472;2023-07-08T02:57:25;21.08;58.57
66670;DHT22;53568;52.164;4.472;2023-07-08T02:59:51;21.13;58.59
66670;DHT22;53568;52.164;4.472;2023-07-08T03:02:16;21.16;58.36
66670;DHT22;53568;52.164;4.472;2023-07-08T03:04:42;21.07;58.79
66670;DHT22;53568;52.164;4.472;2023-07-08T03:07:08;21.13;58.67
66670;DHT22;53568;52.164;4.472;2023-07-08T03:09:40;21.14;58.71
66670;DHT22;53568;52.164;4.472;2023-07-08T03:12:08;21.11;58.77
66670;DHT22;53568;52.164;4.472;2023-07-08T03:14:33;21.14;58.70
66670;DHT22;53568;52.164;4.472;2023-07-08T03:16:59;21.13;58.62
66670;DHT22;53568;52.164;4.472;2023-07-08T03:19:25;21.07;59.08
66670;DHT22;53568;52.164;4.472;2023-07-08T03:21:51;21.07;59.00
66670;DHT22;53568;52.164;4.472;2023-07-08T03:24:16;21.13;58.77
66670;DHT22;53568;52.164;4.472;2023-07-08T03:26:44;21.08;58.94
66670;DHT22;53568;52.164;4.472;2023-07-08T03:29:15;21.03;59.08
66670;DHT22;53568;52.164;4.472;2023-07-08T03:31:41;21.02;58.94
66670;DHT22;53568;52.164;4.472;2023-07-08T03:34:10;21.03;59.11
66670;DHT22;53568;52.164;4.472;2023-07-08T03:36:43;21.11;58.80
66670;DHT22;53568;52.164;4.472;2023-07-08T03:39:19;21.03;59.05
66670;DHT22;53568;52.164;4.472;2023-07-08T03:41:45;21.02;59.20
66670;DHT22;53568;52.164;4.472;2023-07-08T03:44:12;21.04;58.96
66670;DHT22;53568;52.164;4.472;2023-07-08T03:46:38;21.08;58.90
66670;DHT22;53568;52.164;4.472;2023-07-08T03:49:05;20.99;59.26
66670;DHT22;53568;52.164;4.472;2023-07-08T03:51:36;20.83;59.76
66670;DHT22;53568;52.164;4.472;2023-07-08T03:54:04;20.79;60.00
66670;DHT22;53568;52.164;4.472;2023-07-08T03:56:30;20.73;60.10
66670;DHT22;53568;52.164;4.472;2023-07-08T03:58:56;20.71;60.30
66670;DHT22;53568;52.164;4.472;2023-07-08T04:01:23;20.69;60.27
66670;DHT22;53568;52.164;4.472;2023-07-08T04:03:52;20.72;60.27
66670;DHT22;53568;52.164;4.472;2023-07-08T04:06:18;20.66;60.44
66670;DHT22;53568;52.164;4.472;2023-07-08T04:08:44;20.55;60.70
66670;DHT22;53568;52.164;4.472;2023-07-08T04:11:13;20.53;60.65
66670;DHT22;53568;52.164;4.472;2023-07-08T04:13:39;20.57;60.69
66670;DHT22;53568;52.164;4.472;2023-07-08T04:16:05;20.68;60.40
66670;DHT22;53568;52.164;4.472;2023-07-08T04:18:31;20.77;59.99
66670;DHT22;53568;52.164;4.472;2023-07-08T04:20:57;20.73;60.16
66670;DHT22;53568;52.164;4.472;2023-07-08T04:23:24;20.73;60.34
66670;DHT22;53568;52.164;4.472;2023-07-08T04:25:53;20.71;60.38
66670;DHT22;53568;52.164;4.472;2023-07-08T04:28:21;20.72;60.35
66670;DHT22;53568;52.164;4.472;2023-07-08T04:30:47;20.72;60.14
66670;DHT22;53568;52.164;4.472;2023-07-08T04:33:14;20.71;60.14
66670;DHT22;53568;52.164;4.472;2023-07-08T04:35:41;20.79;60.14
66670;DHT22;53568;52.164;4.472;2023-07-08T04:38:19;20.96;59.70
66670;DHT22;53568;52.164;4.472;2023-07-08T04:40:48;21.06;59.54
66670;DHT22;53568;52.164;4.472;2023-07-08T04:43:14;21.16;59.29
66670;DHT22;53568;52.164;4.472;2023-07-08T04:45:43;21.17;58.75
66670;DHT22;53568;52.164;4.472;2023-07-08T04:48:14;21.16;59.27
66670;DHT22;53568;52.164;4.472;2023-07-08T04:50:45;21.22;59.13
66670;DHT22;53568;52.164;4.472;2023-07-08T04:53:12;21.31;58.74
66670;DHT22;53568;52.164;4.472;2023-07-08T04:55:41;21.37;58.43
66670;DHT22;53568;52.164;4.472;2023-07-08T04:58:08;21.44;58.30
66670;DHT22;53568;52.164;4.472;2023-07-08T05:00:34;21.54;57.88
66670;DHT22;53568;52.164;4.472;2023-07-08T05:02:59;21.62;57.50
66670;DHT22;53568;52.164;4.472;2023-07-08T05:05:25;21.65;57.51
66670;DHT22;53568;52.164;4.472;2023-07-08T05:07:51;21.68;57.67
66670;DHT22;53568;52.164;4.472;2023-07-08T05:10:17;21.75;57.55
66670;DHT22;53568;52.164;4.472;2023-07-08T05:12:44;21.85;57.03
66670;DHT22;53568;52.164;4.472;2023-07-08T05:15:10;21.90;56.83
66670;DHT22;53568;52.164;4.472;2023-07-08T05:17:38;21.97;56.40
66670;DHT22;53568;52.164;4.472;2023-07-08T05:20:08;21.92;56.31
66670;DHT22;53568;52.164;4.472;2023-07-08T05:22:34;22.02;56.36
66670;DHT22;53568;52.164;4.472;2023-07-08T05:25:00;22.08;55.89
66670;DHT22;53568;52.164;4.472;2023-07-08T05:27:27;22.11;56.13
66670;DHT22;53568;52.164;4.472;2023-07-08T05:29:53;22.12;56.27
66670;DHT22;53568;52.164;4.472;2023-07-08T05:32:18;22.14;55.79
66670;DHT22;53568;52.164;4.472;2023-07-08T05:34:45;22.06;56.14
66670;DHT22;53568;52.164;4.472;2023-07-08T05:37:11;22.02;56.37
66670;DHT22;53568;52.164;4.472;2023-07-08T05:39:38;21.95;56.47
66670;DHT22;53568;52.164;4.472;2023-07-08T05:42:03;21.98;56.29
66670;DHT22;53568;52.164;4.472;2023-07-08T05:44:29;22.04;56.38
66670;DHT22;53568;52.164;4.472;2023-07-08T05:46:55;22.11;56.48
66670;DHT22;53568;52.164;4.472;2023-07-08T05:49:20;22.28;55.76
66670;DHT22;53568;52.164;4.472;2023-07-08T05:51:47;22.34;55.70
66670;DHT22;53568;52.164;4.472;2023-07-08T05:54:13;22.34;55.52
66670;DHT22;53568;52.164;4.472;2023-07-08T05:56:39;22.28;55.52
66670;DHT22;53568;52.164;4.472;2023-07-08T05:59:05;22.19;56.17
66670;DHT22;53568;52.164;4.472;2023-07-08T06:01:31;22.18;55.95
66670;DHT22;53568;52.164;4.472;2023-07-08T06:03:57;22.15;56.38
66670;DHT22;53568;52.164;4.472;2023-07-08T06:06:27;22.25;56.09
66670;DHT22;53568;52.164;4.472;2023-07-08T06:08:53;22.24;56.27
66670;DHT22;53568;52.164;4.472;2023-07-08T06:11:19;22.25;56.18
66670;DHT22;53568;52.164;4.472;2023-07-08T06:13:45;22.34;56.16
66670;DHT22;53568;52.164;4.472;2023-07-08T06:16:11;22.39;55.75
66670;DHT22;53568;52.164;4.472;2023-07-08T06:18:36;22.49;55.69
66670;DHT22;53568;52.164;4.472;2023-07-08T06:21:02;22.62;55.43
66670;DHT22;53568;52.164;4.472;2023-07-08T06:23:28;22.65;54.36
66670;DHT22;53568;52.164;4.472;2023-07-08T06:25:54;22.77;54.53
66670;DHT22;53568;52.164;4.472;2023-07-08T06:28:21;22.83;53.74
66670;DHT22;53568;52.164;4.472;2023-07-08T06:30:47;22.88;54.64
66670;DHT22;53568;52.164;4.472;2023-07-08T06:33:14;22.80;54.20
66670;DHT22;53568;52.164;4.472;2023-07-08T06:35:40;22.79;54.94
66670;DHT22;53568;52.164;4.472;2023-07-08T06:38:07;22.85;54.48
66670;DHT22;53568;52.164;4.472;2023-07-08T06:40:33;22.89;54.44
66670;DHT22;53568;52.164;4.472;2023-07-08T06:42:59;22.98;54.74
66670;DHT22;53568;52.164;4.472;2023-07-08T06:45:24;23.09;54.33
66670;DHT22;53568;52.164;4.472;2023-07-08T06:47:50;23.12;54.04
66670;DHT22;53568;52.164;4.472;2023-07-08T06:50:16;23.22;54.05
66670;DHT22;53568;52.164;4.472;2023-07-08T06:52:41;23.22;54.47
66670;DHT22;53568;52.164;4.472;2023-07-08T06:55:09;23.27;54.42
66670;DHT22;53568;52.164;4.472;2023-07-08T06:57:35;23.27;54.33
66670;DHT22;53568;52.164;4.472;2023-07-08T07:00:03;23.23;53.85
66670;DHT22;53568;52.164;4.472;2023-07-08T07:02:29;23.20;54.13
66670;DHT22;53568;52.164;4.472;2023-07-08T07:04:54;23.26;54.33
66670;DHT22;53568;52.164;4.472;2023-07-08T07:07:20;23.27;54.75
66670;DHT22;53568;52.164;4.472;2023-07-08T07:09:46;23.27;54.95
66670;DHT22;53568;52.164;4.472;2023-07-08T07:12:15;23.37;55.02
66670;DHT22;53568;52.164;4.472;2023-07-08T07:14:41;23.49;53.28
66670;DHT22;53568;52.164;4.472;2023-07-08T07:17:13;23.53;53.48
66670;DHT22;53568;52.164;4.472;2023-07-08T07:19:43;23.61;53.32
66670;DHT22;53568;52.164;4.472;2023-07-08T07:22:09;23.81;52.92
66670;DHT22;53568;52.164;4.472;2023-07-08T07:24:34;23.91;52.33
66670;DHT22;53568;52.164;4.472;2023-07-08T07:27:00;23.87;52.67
66670;DHT22;53568;52.164;4.472;2023-07-08T07:29:43;23.88;53.72
66670;DHT22;53568;52.164;4.472;2023-07-08T07:32:14;24.04;51.72
66670;DHT22;53568;52.164;4.472;2023-07-08T07:34:40;24.08;52.01
66670;DHT22;53568;52.164;4.472;2023-07-08T07:37:12;24.02;52.17
66670;DHT22;53568;52.164;4.472;2023-07-08T07:39:38;24.04;52.29
66670;DHT22;53568;52.164;4.472;2023-07-08T07:42:04;24.12;51.81
66670;DHT22;53568;52.164;4.472;2023-07-08T07:44:29;24.25;52.37
66670;DHT22;53568;52.164;4.472;2023-07-08T07:46:55;24.38;52.69
66670;DHT22;53568;52.164;4.472;2023-07-08T07:49:21;24.54;52.49
66670;DHT22;53568;52.164;4.472;2023-07-08T07:51:47;24.54;51.68
66670;DHT22;53568;52.164;4.472;2023-07-08T07:54:13;24.51;51.86
66670;DHT22;53568;52.164;4.472;2023-07-08T07:56:39;24.59;52.09
66670;DHT22;53568;52.164;4.472;2023-07-08T07:59:07;24.65;51.47
66670;DHT22;53568;52.164;4.472;2023-07-08T08:01:34;24.71;51.98
66670;DHT22;53568;52.164;4.472;2023-07-08T08:03:59;24.73;51.67
66670;DHT22;53568;52.164;4.472;2023-07-08T08:06:25;24.76;52.26
66670;DHT22;53568;52.164;4.472;2023-07-08T08:08:51;24.80;52.15
66670;DHT22;53568;52.164;4.472;2023-07-08T08:11:17;24.86;52.00
66670;DHT22;53568;52.164;4.472;2023-07-08T08:13:42;24.97;51.00
66670;DHT22;53568;52.164;4.472;2023-07-08T08:16:08;25.06;51.71
66670;DHT22;53568;52.164;4.472;2023-07-08T08:18:33;25.12;51.15
66670;DHT22;53568;52.164;4.472;2023-07-08T08:21:02;25.22;51.45
66670;DHT22;53568;52.164;4.472;2023-07-08T08:23:28;25.33;51.45
66670;DHT22;53568;52.164;4.472;2023-07-08T08:25:53;25.47;51.50
66670;DHT22;53568;52.164;4.472;2023-07-08T08:28:19;25.54;50.22
66670;DHT22;53568;52.164;4.472;2023-07-08T08:30:49;25.57;50.45
66670;DHT22;53568;52.164;4.472;2023-07-08T08:33:15;25.53;51.30
66670;DHT22;53568;52.164;4.472;2023-07-08T08:35:44;25.60;51.10
66670;DHT22;53568;52.164;4.472;2023-07-08T08:38:11;25.69;50.29
66670;DHT22;53568;52.164;4.472;2023-07-08T08:40:40;25.78;51.02
66670;DHT22;53568;52.164;4.472;2023-07-08T08:43:18;25.85;50.62
66670;DHT22;53568;52.164;4.472;2023-07-08T08:46:09;25.94;50.64
66670;DHT22;53568;52.164;4.472;2023-07-08T08:49:18;26.02;50.38
66670;DHT22;53568;52.164;4.472;2023-07-08T08:51:48;26.07;50.03
66670;DHT22;53568;52.164;4.472;2023-07-08T08:54:15;26.14;50.42
66670;DHT22;53568;52.164;4.472;2023-07-08T08:56:56;26.22;50.02
66670;DHT22;53568;52.164;4.472;2023-07-08T08:59:42;26.37;50.34
66670;DHT22;53568;52.164;4.472;2023-07-08T09:05:03;26.56;49.27
66670;DHT22;53568;52.164;4.472;2023-07-08T09:11:00;26.86;49.22
66670;DHT22;53568;52.164;4.472;2023-07-08T09:13:32;26.93;48.32
66670;DHT22;53568;52.164;4.472;2023-07-08T09:16:18;26.88;48.77
66670;DHT22;53568;52.164;4.472;2023-07-08T09:21:28;27.03;48.66
66670;DHT22;53568;52.164;4.472;2023-07-08T09:24:03;27.13;47.98
66670;DHT22;53568;52.164;4.472;2023-07-08T09:26:30;27.12;48.56
66670;DHT22;53568;52.164;4.472;2023-07-08T09:29:00;27.25;47.57
66670;DHT22;53568;52.164;4.472;2023-07-08T09:31:32;27.29;47.06
66670;DHT22;53568;52.164;4.472;2023-07-08T09:34:17;27.36;48.00
66670;DHT22;53568;52.164;4.472;2023-07-08T09:36:46;27.43;48.13
66670;DHT22;53568;52.164;4.472;2023-07-08T09:39:17;27.54;48.21
66670;DHT22;53568;52.164;4.472;2023-07-08T09:41:47;27.59;47.97
66670;DHT22;53568;52.164;4.472;2023-07-08T09:46:43;27.81;47.58
66670;DHT22;53568;52.164;4.472;2023-07-08T09:49:20;27.79;47.27
66670;DHT22;53568;52.164;4.472;2023-07-08T09:51:46;27.84;46.24
66670;DHT22;53568;52.164;4.472;2023-07-08T09:54:18;27.89;46.68
66670;DHT22;53568;52.164;4.472;2023-07-08T09:56:59;27.94;46.74
66670;DHT22;53568;52.164;4.472;2023-07-08T09:59:32;28.04;46.68
66670;DHT22;53568;52.164;4.472;2023-07-08T10:08:19;28.37;45.00
66670;DHT22;53568;52.164;4.472;2023-07-08T10:11:09;28.41;44.42
66670;DHT22;53568;52.164;4.472;2023-07-08T10:13:41;28.51;42.99
66670;DHT22;53568;52.164;4.472;2023-07-08T10:18:37;28.54;44.14
66670;DHT22;53568;52.164;4.472;2023-07-08T10:23:43;28.55;44.14
66670;DHT22;53568;52.164;4.472;2023-07-08T10:26:31;28.72;44.82
66670;DHT22;53568;52.164;4.472;2023-07-08T10:29:21;28.98;43.92
66670;DHT22;53568;52.164;4.472;2023-07-08T10:32:04;29.13;43.64
66670;DHT22;53568;52.164;4.472;2023-07-08T10:34:47;29.25;43.09
66670;DHT22;53568;52.164;4.472;2023-07-08T10:37:36;29.22;42.57
66670;DHT22;53568;52.164;4.472;2023-07-08T10:40:14;29.27;42.40
66670;DHT22;53568;52.164;4.472;2023-07-08T10:51:19;29.62;42.15
66670;DHT22;53568;52.164;4.472;2023-07-08T11:11:01;30.07;40.87
66670;DHT22;53568;52.164;4.472;2023-07-08T11:13:32;30.13;41.20
66670;DHT22;53568;52.164;4.472;2023-07-08T11:16:07;30.16;41.09
66670;DHT22;53568;52.164;4.472;2023-07-08T11:19:06;30.10;40.50
66670;DHT22;53568;52.164;4.472;2023-07-08T11:21:42;30.11;41.37
66670;DHT22;53568;52.164;4.472;2023-07-08T11:24:21;30.18;40.53
66670;DHT22;53568;52.164;4.472;2023-07-08T11:27:10;30.27;40.36
66670;DHT22;53568;52.164;4.472;2023-07-08T11:30:11;30.42;41.01
66670;DHT22;53568;52.164;4.472;2023-07-08T11:32:40;30.58;40.73
66670;DHT22;53568;52.164;4.472;2023-07-08T11:38:02;30.64;41.52
66670;DHT22;53568;52.164;4.472;2023-07-08T11:40:28;30.74;40.29
66670;DHT22;53568;52.164;4.472;2023-07-08T11:43:05;30.79;39.62
66670;DHT22;53568;52.164;4.472;2023-07-08T11:45:46;30.64;39.66
66670;DHT22;53568;52.164;4.472;2023-07-08T11:48:18;30.62;40.12
66670;DHT22;53568;52.164;4.472;2023-07-08T11:50:49;30.72;40.28
66670;DHT22;53568;52.164;4.472;2023-07-08T11:55:59;30.94;39.80
66670;DHT22;53568;52.164;4.472;2023-07-08T11:58:28;31.08;38.26
66670;DHT22;53568;52.164;4.472;2023-07-08T12:03:55;31.38;37.38
66670;DHT22;53568;52.164;4.472;2023-07-08T12:09:13;31.69;37.55
66670;DHT22;53568;52.164;4.472;2023-07-08T12:11:44;31.69;35.27
66670;DHT22;53568;52.164;4.472;2023-07-08T12:14:11;31.58;36.56
66670;DHT22;53568;52.164;4.472;2023-07-08T12:16:39;31.59;36.65
66670;DHT22;53568;52.164;4.472;2023-07-08T12:19:15;31.66;37.56
66670;DHT22;53568;52.164;4.472;2023-07-08T12:21:42;31.77;37.47
66670;DHT22;53568;52.164;4.472;2023-07-08T12:24:13;31.82;37.33
66670;DHT22;53568;52.164;4.472;2023-07-08T12:26:46;31.87;37.75
66670;DHT22;53568;52.164;4.472;2023-07-08T12:29:12;32.02;37.44
66670;DHT22;53568;52.164;4.472;2023-07-08T12:31:45;32.03;38.12
66670;DHT22;53568;52.164;4.472;2023-07-08T12:34:15;32.17;37.50
66670;DHT22;53568;52.164;4.472;2023-07-08T12:36:46;32.24;36.59
66670;DHT22;53568;52.164;4.472;2023-07-08T12:39:14;32.30;36.59
66670;DHT22;53568;52.164;4.472;2023-07-08T12:41:43;32.50;35.92
66670;DHT22;53568;52.164;4.472;2023-07-08T12:44:21;32.47;36.34
66670;DHT22;53568;52.164;4.472;2023-07-08T12:46:52;32.50;35.40
66670;DHT22;53568;52.164;4.472;2023-07-08T12:49:18;32.60;33.57
66670;DHT22;53568;52.164;4.472;2023-07-08T12:51:46;32.58;34.02
66670;DHT22;53568;52.164;4.472;2023-07-08T12:54:13;32.61;35.17
66670;DHT22;53568;52.164;4.472;2023-07-08T12:56:43;32.65;33.34
66670;DHT22;53568;52.164;4.472;2023-07-08T12:59:14;32.79;33.77
66670;DHT22;53568;52.164;4.472;2023-07-08T13:01:46;32.94;33.74
66670;DHT22;53568;52.164;4.472;2023-07-08T13:04:14;32.98;31.65
66670;DHT22;53568;52.164;4.472;2023-07-08T13:06:40;33.02;31.54
66670;DHT22;53568;52.164;4.472;2023-07-08T13:11:43;32.99;33.72
66670;DHT22;53568;52.164;4.472;2023-07-08T13:14:11;32.95;34.14
66670;DHT22;53568;52.164;4.472;2023-07-08T13:16:38;33.08;33.21
66670;DHT22;53568;52.164;4.472;2023-07-08T13:19:04;33.21;33.92
66670;DHT22;53568;52.164;4.472;2023-07-08T13:21:32;33.26;32.41
66670;DHT22;53568;52.164;4.472;2023-07-08T13:23:58;33.21;33.25
66670;DHT22;53568;52.164;4.472;2023-07-08T13:26:30;33.23;33.78
66670;DHT22;53568;52.164;4.472;2023-07-08T13:29:03;33.35;34.07
66670;DHT22;53568;52.164;4.472;2023-07-08T13:31:36;33.38;33.89
66670;DHT22;53568;52.164;4.472;2023-07-08T13:34:09;33.48;33.80
66670;DHT22;53568;52.164;4.472;2023-07-08T13:36:40;33.48;32.18
66670;DHT22;53568;52.164;4.472;2023-07-08T13:39:09;33.46;32.69
66670;DHT22;53568;52.164;4.472;2023-07-08T13:41:43;33.56;32.43
66670;DHT22;53568;52.164;4.472;2023-07-08T13:44:09;33.62;32.09
66670;DHT22;53568;52.164;4.472;2023-07-08T13:46:45;33.45;32.45
66670;DHT22;53568;52.164;4.472;2023-07-08T13:52:18;33.63;32.15
66670;DHT22;53568;52.164;4.472;2023-07-08T13:54:54;33.68;33.49
66670;DHT22;53568;52.164;4.472;2023-07-08T13:57:24;33.72;32.92
66670;DHT22;53568;52.164;4.472;2023-07-08T13:59:53;33.72;32.87
66670;DHT22;53568;52.164;4.472;2023-07-08T14:02:22;33.70;33.62
66670;DHT22;53568;52.164;4.472;2023-07-08T14:04:50;33.73;33.21
66670;DHT22;53568;52.164;4.472;2023-07-08T14:07:25;33.72;33.18
66670;DHT22;53568;52.164;4.472;2023-07-08T14:09:54;33.56;33.78
66670;DHT22;53568;52.164;4.472;2023-07-08T14:12:21;33.72;33.88
66670;DHT22;53568;52.164;4.472;2023-07-08T14:14:48;33.83;33.23
66670;DHT22;53568;52.164;4.472;2023-07-08T14:17:23;33.90;32.93
66670;DHT22;53568;52.164;4.472;2023-07-08T14:19:49;33.86;33.55
66670;DHT22;53568;52.164;4.472;2023-07-08T14:22:19;33.88;32.77
66670;DHT22;53568;52.164;4.472;2023-07-08T14:24:46;33.93;32.80
66670;DHT22;53568;52.164;4.472;2023-07-08T14:27:12;33.95;33.51
66670;DHT22;53568;52.164;4.472;2023-07-08T14:29:43;34.02;33.96
66670;DHT22;53568;52.164;4.472;2023-07-08T14:32:26;34.05;31.87
66670;DHT22;53568;52.164;4.472;2023-07-08T14:35:00;34.20;31.65
66670;DHT22;53568;52.164;4.472;2023-07-08T14:37:29;34.23;31.57
66670;DHT22;53568;52.164;4.472;2023-07-08T14:39:58;34.27;31.84
66670;DHT22;53568;52.164;4.472;2023-07-08T14:42:24;34.36;33.33
66670;DHT22;53568;52.164;4.472;2023-07-08T14:44:56;34.33;32.97
66670;DHT22;53568;52.164;4.472;2023-07-08T14:47:26;34.33;33.42
66670;DHT22;53568;52.164;4.472;2023-07-08T14:49:53;34.43;31.41
66670;DHT22;53568;52.164;4.472;2023-07-08T14:52:19;34.43;31.71
66670;DHT22;53568;52.164;4.472;2023-07-08T14:54:45;34.37;31.48
66670;DHT22;53568;52.164;4.472;2023-07-08T14:57:16;34.47;31.06
66670;DHT22;53568;52.164;4.472;2023-07-08T14:59:45;34.50;31.55
66670;DHT22;53568;52.164;4.472;2023-07-08T15:02:35;34.60;31.68
66670;DHT22;53568;52.164;4.472;2023-07-08T15:05:13;34.66;30.43
66670;DHT22;53568;52.164;4.472;2023-07-08T15:07:54;34.41;31.02
66670;DHT22;53568;52.164;4.472;2023-07-08T15:10:24;34.23;31.50
66670;DHT22;53568;52.164;4.472;2023-07-08T15:12:52;34.16;31.37
66670;DHT22;53568;52.164;4.472;2023-07-08T15:18:18;34.02;31.99
66670;DHT22;53568;52.164;4.472;2023-07-08T15:20:47;34.06;32.54
66670;DHT22;53568;52.164;4.472;2023-07-08T15:23:13;34.02;32.81
66670;DHT22;53568;52.164;4.472;2023-07-08T15:25:48;34.12;32.77
66670;DHT22;53568;52.164;4.472;2023-07-08T15:31:18;34.09;33.11
66670;DHT22;53568;52.164;4.472;2023-07-08T15:33:48;34.07;33.20
66670;DHT22;53568;52.164;4.472;2023-07-08T15:36:30;34.07;32.75
66670;DHT22;53568;52.164;4.472;2023-07-08T15:39:07;33.97;33.79
66670;DHT22;53568;52.164;4.472;2023-07-08T15:41:40;33.65;35.43
66670;DHT22;53568;52.164;4.472;2023-07-08T15:44:11;33.17;36.40
66670;DHT22;53568;52.164;4.472;2023-07-08T15:46:44;32.79;37.20
66670;DHT22;53568;52.164;4.472;2023-07-08T15:49:30;32.21;38.70
66670;DHT22;53568;52.164;4.472;2023-07-08T15:51:59;32.00;39.05
66670;DHT22;53568;52.164;4.472;2023-07-08T15:54:25;31.47;39.82
66670;DHT22;53568;52.164;4.472;2023-07-08T15:56:57;30.88;40.96
66670;DHT22;53568;52.164;4.472;2023-07-08T15:59:27;30.58;42.38
66670;DHT22;53568;52.164;4.472;2023-07-08T16:01:54;30.51;42.12
66670;DHT22;53568;52.164;4.472;2023-07-08T16:04:28;30.38;42.88
66670;DHT22;53568;52.164;4.472;2023-07-08T16:06:57;30.10;43.16
66670;DHT22;53568;52.164;4.472;2023-07-08T16:09:23;29.86;43.16
66670;DHT22;53568;52.164;4.472;2023-07-08T16:11:50;29.62;43.65
66670;DHT22;53568;52.164;4.472;2023-07-08T16:14:23;29.53;44.34
66670;DHT22;53568;52.164;4.472;2023-07-08T16:16:48;29.57;44.15
66670;DHT22;53568;52.164;4.472;2023-07-08T16:19:17;29.52;43.75
66670;DHT22;53568;52.164;4.472;2023-07-08T16:21:46;29.46;44.07
66670;DHT22;53568;52.164;4.472;2023-07-08T16:24:16;29.22;45.26
66670;DHT22;53568;52.164;4.472;2023-07-08T16:26:44;29.15;45.25
66670;DHT22;53568;52.164;4.472;2023-07-08T16:29:15;28.99;45.64
66670;DHT22;53568;52.164;4.472;2023-07-08T16:31:43;28.95;45.73
66670;DHT22;53568;52.164;4.472;2023-07-08T16:34:10;28.83;45.94
66670;DHT22;53568;52.164;4.472;2023-07-08T16:36:36;28.85;46.23
66670;DHT22;53568;52.164;4.472;2023-07-08T16:39:03;28.95;46.51
66670;DHT22;53568;52.164;4.472;2023-07-08T16:41:32;29.06;46.25
66670;DHT22;53568;52.164;4.472;2023-07-08T16:44:03;29.20;46.07
66670;DHT22;53568;52.164;4.472;2023-07-08T16:46:33;28.96;46.10
66670;DHT22;53568;52.164;4.472;2023-07-08T16:48:59;29.06;46.53
66670;DHT22;53568;52.164;4.472;2023-07-08T16:51:27;28.95;46.40
66670;DHT22;53568;52.164;4.472;2023-07-08T16:54:08;28.87;46.24
66670;DHT22;53568;52.164;4.472;2023-07-08T16:56:34;28.78;46.76
66670;DHT22;53568;52.164;4.472;2023-07-08T16:59:00;28.74;46.57
66670;DHT22;53568;52.164;4.472;2023-07-08T17:01:27;28.62;46.70